Pagrindinis puslapis
METAR-TAF:

METAR-TAF

Oro uostai :

Nakhon Phanom, Tailandas

platuma: 17-23-02N, ilguma: 104-38-35E, Aukštis: 179 m

Dabartinis oras

Ataskaita buvo paskelbta 35 minutes, ne 07:00 UTC
Vėjas 9 kt iš Rytų/Pietryčių, svyruoja nuo Rytų/Šiaurės Rytų ir Pietų/Pietryčių
Temperatūra 31°C
Drėgmė 33%
Slėgis 1017 hPa
Matomumas 10 km arba daugiau
nėra debesų žemiau 1500 m ir nėra kamuolinių lietaus debesų

METAR: VTUW 230700Z 11009KT 060V150 CAVOK 31/13 Q1017 NOSIG

Laikas: 14:35 (07:35 UTC)

Prognozė

Ataskaita buvo paskelbta 2 valandos ir 35 minutes, ne 05:00 UTC
Prognozė galioja nuo 23 metu 06 UTC su 24 metu 06 UTC
Vėjas 10 kt iš Rytų
Matomumas 10 km arba daugiau
nėra debesų žemiau 1500 m ir nėra kamuolinių lietaus debesų

TAF: VTUW 230500Z 2306/2406 08010KT CAVOK

Orai ataskaitas ir orų prognozės (METAR, TAF).

turimą stotys yra geltonos ir raudonos taškus žemėlapyje.

Perkelti pele per norėdami pamatyti stoties vardą.

Tada spustelėkite, norėdami matyti oro stebėjimo ir prognozės.

Norėdami pakeisti žemėlapį: spustelėkite ant žalios mygtukų su juodo kryžiaus žemyn,; žalią mygtuką su brūkšneliu, jei norite nutolinti; arba žalių rodyklių gretimoms žemėlapius.


METAR-TAF: